sensor_id;sensor_type;location;lat;lon;timestamp;P1;durP1;ratioP1;P2;durP2;ratioP2
20535;SDS011;10426;49.420;8.390;2023-08-21T00:00:04;3.90;;;3.60;;
20535;SDS011;10426;49.420;8.390;2023-08-21T00:02:31;3.93;;;3.27;;
20535;SDS011;10426;49.420;8.390;2023-08-21T00:04:59;3.50;;;3.30;;
20535;SDS011;10426;49.420;8.390;2023-08-21T00:07:25;3.83;;;3.50;;
20535;SDS011;10426;49.420;8.390;2023-08-21T00:09:52;5.13;;;3.80;;
20535;SDS011;10426;49.420;8.390;2023-08-21T00:12:19;4.53;;;3.70;;
20535;SDS011;10426;49.420;8.390;2023-08-21T00:14:45;4.65;;;3.63;;
20535;SDS011;10426;49.420;8.390;2023-08-21T00:17:12;5.00;;;3.50;;
20535;SDS011;10426;49.420;8.390;2023-08-21T00:19:38;4.13;;;3.72;;
20535;SDS011;10426;49.420;8.390;2023-08-21T00:22:06;4.50;;;3.42;;
20535;SDS011;10426;49.420;8.390;2023-08-21T00:24:33;6.85;;;3.50;;
20535;SDS011;10426;49.420;8.390;2023-08-21T00:27:00;4.32;;;3.70;;
20535;SDS011;10426;49.420;8.390;2023-08-21T00:29:28;4.93;;;3.58;;
20535;SDS011;10426;49.420;8.390;2023-08-21T00:31:55;4.27;;;3.60;;
20535;SDS011;10426;49.420;8.390;2023-08-21T00:34:22;3.70;;;3.40;;
20535;SDS011;10426;49.420;8.390;2023-08-21T00:36:48;3.92;;;3.50;;
20535;SDS011;10426;49.420;8.390;2023-08-21T00:39:16;4.10;;;3.67;;
20535;SDS011;10426;49.420;8.390;2023-08-21T00:41:43;4.32;;;3.80;;
20535;SDS011;10426;49.420;8.390;2023-08-21T00:44:09;3.92;;;3.60;;
20535;SDS011;10426;49.420;8.390;2023-08-21T00:46:36;3.90;;;3.60;;
20535;SDS011;10426;49.420;8.390;2023-08-21T00:49:03;4.00;;;3.70;;
20535;SDS011;10426;49.420;8.390;2023-08-21T00:51:31;3.72;;;3.42;;
20535;SDS011;10426;49.420;8.390;2023-08-21T00:53:58;4.10;;;3.70;;
20535;SDS011;10426;49.420;8.390;2023-08-21T00:56:26;3.95;;;3.55;;
20535;SDS011;10426;49.420;8.390;2023-08-21T00:58:52;4.15;;;3.60;;
20535;SDS011;10426;49.420;8.390;2023-08-21T01:01:19;4.15;;;3.63;;
20535;SDS011;10426;49.420;8.390;2023-08-21T01:03:46;3.60;;;3.40;;
20535;SDS011;10426;49.420;8.390;2023-08-21T01:06:14;3.92;;;3.63;;
20535;SDS011;10426;49.420;8.390;2023-08-21T01:08:41;3.55;;;3.35;;
20535;SDS011;10426;49.420;8.390;2023-08-21T01:11:10;4.55;;;3.50;;
20535;SDS011;10426;49.420;8.390;2023-08-21T01:13:47;3.63;;;3.42;;
20535;SDS011;10426;49.420;8.390;2023-08-21T01:16:14;4.18;;;3.88;;
20535;SDS011;10426;49.420;8.390;2023-08-21T01:18:41;4.82;;;3.65;;
20535;SDS011;10426;49.420;8.390;2023-08-21T01:21:08;3.88;;;3.58;;
20535;SDS011;10426;49.420;8.390;2023-08-21T01:23:36;4.10;;;3.80;;
20535;SDS011;10426;49.420;8.390;2023-08-21T01:26:04;3.60;;;3.30;;
20535;SDS011;10426;49.420;8.390;2023-08-21T01:28:30;3.83;;;3.40;;
20535;SDS011;10426;49.420;8.390;2023-08-21T01:30:59;4.10;;;3.70;;
20535;SDS011;10426;49.420;8.390;2023-08-21T01:33:27;3.70;;;3.40;;
20535;SDS011;10426;49.420;8.390;2023-08-21T01:35:56;3.83;;;3.55;;
20535;SDS011;10426;49.420;8.390;2023-08-21T01:38:23;3.97;;;3.67;;
20535;SDS011;10426;49.420;8.390;2023-08-21T01:40:51;4.67;;;4.20;;
20535;SDS011;10426;49.420;8.390;2023-08-21T01:43:18;4.90;;;3.83;;
20535;SDS011;10426;49.420;8.390;2023-08-21T01:45:45;4.20;;;3.80;;
20535;SDS011;10426;49.420;8.390;2023-08-21T01:48:12;3.95;;;3.65;;
20535;SDS011;10426;49.420;8.390;2023-08-21T01:50:39;4.20;;;3.80;;
20535;SDS011;10426;49.420;8.390;2023-08-21T01:53:05;4.95;;;3.80;;
20535;SDS011;10426;49.420;8.390;2023-08-21T01:55:32;4.20;;;3.80;;
20535;SDS011;10426;49.420;8.390;2023-08-21T01:58:00;4.00;;;3.70;;
20535;SDS011;10426;49.420;8.390;2023-08-21T02:00:27;4.35;;;3.72;;
20535;SDS011;10426;49.420;8.390;2023-08-21T02:02:53;5.20;;;4.03;;
20535;SDS011;10426;49.420;8.390;2023-08-21T02:05:20;3.83;;;3.60;;
20535;SDS011;10426;49.420;8.390;2023-08-21T02:07:47;5.97;;;4.50;;
20535;SDS011;10426;49.420;8.390;2023-08-21T02:10:13;4.50;;;4.20;;
20535;SDS011;10426;49.420;8.390;2023-08-21T02:12:40;4.63;;;4.00;;
20535;SDS011;10426;49.420;8.390;2023-08-21T02:15:09;4.30;;;3.90;;
20535;SDS011;10426;49.420;8.390;2023-08-21T02:17:36;5.30;;;4.18;;
20535;SDS011;10426;49.420;8.390;2023-08-21T02:20:03;4.50;;;4.20;;
20535;SDS011;10426;49.420;8.390;2023-08-21T02:22:30;4.30;;;4.00;;
20535;SDS011;10426;49.420;8.390;2023-08-21T02:24:56;4.72;;;3.90;;
20535;SDS011;10426;49.420;8.390;2023-08-21T02:27:23;4.70;;;4.00;;
20535;SDS011;10426;49.420;8.390;2023-08-21T02:29:50;4.13;;;3.83;;
20535;SDS011;10426;49.420;8.390;2023-08-21T02:32:17;4.45;;;4.15;;
20535;SDS011;10426;49.420;8.390;2023-08-21T02:34:44;4.80;;;4.30;;
20535;SDS011;10426;49.420;8.390;2023-08-21T02:37:11;4.47;;;3.90;;
20535;SDS011;10426;49.420;8.390;2023-08-21T02:39:38;6.03;;;3.97;;
20535;SDS011;10426;49.420;8.390;2023-08-21T02:42:04;4.47;;;4.18;;
20535;SDS011;10426;49.420;8.390;2023-08-21T02:44:31;4.40;;;4.10;;
20535;SDS011;10426;49.420;8.390;2023-08-21T02:46:58;4.60;;;4.30;;
20535;SDS011;10426;49.420;8.390;2023-08-21T02:49:26;4.38;;;4.10;;
20535;SDS011;10426;49.420;8.390;2023-08-21T02:51:52;4.88;;;4.40;;
20535;SDS011;10426;49.420;8.390;2023-08-21T02:54:19;5.22;;;4.22;;
20535;SDS011;10426;49.420;8.390;2023-08-21T02:56:45;5.37;;;4.40;;
20535;SDS011;10426;49.420;8.390;2023-08-21T02:59:13;5.03;;;4.65;;
20535;SDS011;10426;49.420;8.390;2023-08-21T03:01:40;4.70;;;4.40;;
20535;SDS011;10426;49.420;8.390;2023-08-21T03:04:06;4.78;;;4.47;;
20535;SDS011;10426;49.420;8.390;2023-08-21T03:06:34;4.65;;;4.25;;
20535;SDS011;10426;49.420;8.390;2023-08-21T03:09:01;4.97;;;4.57;;
20535;SDS011;10426;49.420;8.390;2023-08-21T03:11:28;4.85;;;4.40;;
20535;SDS011;10426;49.420;8.390;2023-08-21T03:13:54;5.22;;;4.72;;
20535;SDS011;10426;49.420;8.390;2023-08-21T03:16:21;5.82;;;4.90;;
20535;SDS011;10426;49.420;8.390;2023-08-21T03:18:54;6.40;;;4.93;;
20535;SDS011;10426;49.420;8.390;2023-08-21T03:21:21;5.77;;;5.27;;
20535;SDS011;10426;49.420;8.390;2023-08-21T03:23:50;7.10;;;5.22;;
20535;SDS011;10426;49.420;8.390;2023-08-21T03:26:17;5.25;;;4.75;;
20535;SDS011;10426;49.420;8.390;2023-08-21T03:28:43;5.47;;;4.97;;
20535;SDS011;10426;49.420;8.390;2023-08-21T03:31:10;5.35;;;5.00;;
20535;SDS011;10426;49.420;8.390;2023-08-21T03:33:37;4.90;;;4.50;;
20535;SDS011;10426;49.420;8.390;2023-08-21T03:36:03;5.63;;;5.10;;
20535;SDS011;10426;49.420;8.390;2023-08-21T03:38:30;5.45;;;5.00;;
20535;SDS011;10426;49.420;8.390;2023-08-21T03:40:58;5.45;;;5.13;;
20535;SDS011;10426;49.420;8.390;2023-08-21T03:43:25;5.70;;;5.20;;
20535;SDS011;10426;49.420;8.390;2023-08-21T03:45:51;5.68;;;5.28;;
20535;SDS011;10426;49.420;8.390;2023-08-21T03:48:18;5.53;;;5.10;;
20535;SDS011;10426;49.420;8.390;2023-08-21T03:50:45;5.95;;;5.40;;
20535;SDS011;10426;49.420;8.390;2023-08-21T03:53:11;5.60;;;5.20;;
20535;SDS011;10426;49.420;8.390;2023-08-21T03:55:38;5.85;;;5.35;;
20535;SDS011;10426;49.420;8.390;2023-08-21T03:58:06;5.90;;;5.15;;
20535;SDS011;10426;49.420;8.390;2023-08-21T04:00:32;5.90;;;5.40;;
20535;SDS011;10426;49.420;8.390;2023-08-21T04:02:59;5.10;;;4.78;;
20535;SDS011;10426;49.420;8.390;2023-08-21T04:05:26;5.82;;;5.30;;
20535;SDS011;10426;49.420;8.390;2023-08-21T04:07:52;6.00;;;5.43;;
20535;SDS011;10426;49.420;8.390;2023-08-21T04:10:19;5.82;;;4.95;;
20535;SDS011;10426;49.420;8.390;2023-08-21T04:12:45;5.60;;;5.20;;
20535;SDS011;10426;49.420;8.390;2023-08-21T04:15:13;5.60;;;5.10;;
20535;SDS011;10426;49.420;8.390;2023-08-21T04:17:40;5.68;;;5.15;;
20535;SDS011;10426;49.420;8.390;2023-08-21T04:20:07;6.20;;;5.30;;
20535;SDS011;10426;49.420;8.390;2023-08-21T04:22:34;6.37;;;5.70;;
20535;SDS011;10426;49.420;8.390;2023-08-21T04:25:01;5.97;;;5.07;;
20535;SDS011;10426;49.420;8.390;2023-08-21T04:27:27;6.05;;;5.50;;
20535;SDS011;10426;49.420;8.390;2023-08-21T04:29:54;5.55;;;5.15;;
20535;SDS011;10426;49.420;8.390;2023-08-21T04:32:22;6.15;;;5.47;;
20535;SDS011;10426;49.420;8.390;2023-08-21T04:34:49;5.55;;;5.15;;
20535;SDS011;10426;49.420;8.390;2023-08-21T04:37:15;6.07;;;5.57;;
20535;SDS011;10426;49.420;8.390;2023-08-21T04:39:42;5.60;;;5.10;;
20535;SDS011;10426;49.420;8.390;2023-08-21T04:42:09;6.13;;;5.53;;
20535;SDS011;10426;49.420;8.390;2023-08-21T04:44:35;6.47;;;5.88;;
20535;SDS011;10426;49.420;8.390;2023-08-21T04:49:45;6.20;;;5.70;;
20535;SDS011;10426;49.420;8.390;2023-08-21T04:52:11;6.28;;;5.68;;
20535;SDS011;10426;49.420;8.390;2023-08-21T04:54:38;6.88;;;5.93;;
20535;SDS011;10426;49.420;8.390;2023-08-21T04:57:05;6.68;;;5.50;;
20535;SDS011;10426;49.420;8.390;2023-08-21T04:59:31;6.00;;;5.50;;
20535;SDS011;10426;49.420;8.390;2023-08-21T05:01:58;6.10;;;5.50;;
20535;SDS011;10426;49.420;8.390;2023-08-21T05:04:25;9.27;;;5.82;;
20535;SDS011;10426;49.420;8.390;2023-08-21T05:06:53;7.50;;;5.63;;
20535;SDS011;10426;49.420;8.390;2023-08-21T05:09:20;6.50;;;5.90;;
20535;SDS011;10426;49.420;8.390;2023-08-21T05:11:46;6.30;;;5.70;;
20535;SDS011;10426;49.420;8.390;2023-08-21T05:14:13;6.60;;;6.00;;
20535;SDS011;10426;49.420;8.390;2023-08-21T05:16:40;6.50;;;6.00;;
20535;SDS011;10426;49.420;8.390;2023-08-21T05:19:06;6.72;;;6.10;;
20535;SDS011;10426;49.420;8.390;2023-08-21T05:21:33;6.57;;;5.97;;
20535;SDS011;10426;49.420;8.390;2023-08-21T05:24:01;6.65;;;6.05;;
20535;SDS011;10426;49.420;8.390;2023-08-21T05:26:28;6.40;;;5.90;;
20535;SDS011;10426;49.420;8.390;2023-08-21T05:28:54;6.80;;;6.10;;
20535;SDS011;10426;49.420;8.390;2023-08-21T05:31:21;6.90;;;6.20;;
20535;SDS011;10426;49.420;8.390;2023-08-21T05:33:48;6.45;;;5.90;;
20535;SDS011;10426;49.420;8.390;2023-08-21T05:36:15;7.63;;;6.40;;
20535;SDS011;10426;49.420;8.390;2023-08-21T05:38:41;7.60;;;6.22;;
20535;SDS011;10426;49.420;8.390;2023-08-21T05:41:09;6.72;;;6.13;;
20535;SDS011;10426;49.420;8.390;2023-08-21T05:43:36;8.48;;;6.10;;
20535;SDS011;10426;49.420;8.390;2023-08-21T05:46:05;6.95;;;6.13;;
20535;SDS011;10426;49.420;8.390;2023-08-21T05:48:31;7.25;;;6.20;;
20535;SDS011;10426;49.420;8.390;2023-08-21T05:50:58;6.60;;;5.95;;
20535;SDS011;10426;49.420;8.390;2023-08-21T05:53:25;7.20;;;6.50;;
20535;SDS011;10426;49.420;8.390;2023-08-21T05:55:52;7.93;;;6.20;;
20535;SDS011;10426;49.420;8.390;2023-08-21T05:58:19;7.72;;;6.22;;
20535;SDS011;10426;49.420;8.390;2023-08-21T06:00:47;7.07;;;6.37;;
20535;SDS011;10426;49.420;8.390;2023-08-21T06:03:14;7.73;;;6.10;;
20535;SDS011;10426;49.420;8.390;2023-08-21T06:05:40;8.07;;;6.03;;
20535;SDS011;10426;49.420;8.390;2023-08-21T06:08:09;9.45;;;6.18;;
20535;SDS011;10426;49.420;8.390;2023-08-21T06:10:35;6.47;;;5.83;;
20535;SDS011;10426;49.420;8.390;2023-08-21T06:13:02;7.10;;;6.18;;
20535;SDS011;10426;49.420;8.390;2023-08-21T06:15:30;7.00;;;6.40;;
20535;SDS011;10426;49.420;8.390;2023-08-21T06:17:57;6.85;;;6.10;;
20535;SDS011;10426;49.420;8.390;2023-08-21T06:20:23;6.37;;;5.77;;
20535;SDS011;10426;49.420;8.390;2023-08-21T06:22:50;6.72;;;5.97;;
20535;SDS011;10426;49.420;8.390;2023-08-21T06:25:17;7.13;;;6.43;;
20535;SDS011;10426;49.420;8.390;2023-08-21T06:27:44;6.97;;;6.30;;
20535;SDS011;10426;49.420;8.390;2023-08-21T06:30:11;7.97;;;6.00;;
20535;SDS011;10426;49.420;8.390;2023-08-21T06:32:40;6.40;;;5.80;;
20535;SDS011;10426;49.420;8.390;2023-08-21T06:35:07;6.53;;;6.03;;
20535;SDS011;10426;49.420;8.390;2023-08-21T06:37:34;7.00;;;5.77;;
20535;SDS011;10426;49.420;8.390;2023-08-21T06:40:00;6.97;;;6.10;;
20535;SDS011;10426;49.420;8.390;2023-08-21T06:42:27;6.80;;;6.10;;
20535;SDS011;10426;49.420;8.390;2023-08-21T06:44:54;7.10;;;6.50;;
20535;SDS011;10426;49.420;8.390;2023-08-21T06:47:20;7.10;;;6.32;;
20535;SDS011;10426;49.420;8.390;2023-08-21T06:49:48;7.00;;;5.80;;
20535;SDS011;10426;49.420;8.390;2023-08-21T06:52:16;6.05;;;5.60;;
20535;SDS011;10426;49.420;8.390;2023-08-21T06:54:42;7.07;;;5.85;;
20535;SDS011;10426;49.420;8.390;2023-08-21T06:57:09;6.72;;;6.13;;
20535;SDS011;10426;49.420;8.390;2023-08-21T06:59:35;6.75;;;6.22;;
20535;SDS011;10426;49.420;8.390;2023-08-21T07:02:03;6.68;;;6.07;;
20535;SDS011;10426;49.420;8.390;2023-08-21T07:04:30;7.47;;;6.13;;
20535;SDS011;10426;49.420;8.390;2023-08-21T07:06:59;6.57;;;5.93;;
20535;SDS011;10426;49.420;8.390;2023-08-21T07:09:26;6.80;;;6.22;;
20535;SDS011;10426;49.420;8.390;2023-08-21T07:11:53;7.60;;;5.90;;
20535;SDS011;10426;49.420;8.390;2023-08-21T07:14:19;5.90;;;5.40;;
20535;SDS011;10426;49.420;8.390;2023-08-21T07:16:46;6.22;;;5.60;;
20535;SDS011;10426;49.420;8.390;2023-08-21T07:19:12;6.93;;;5.40;;
20535;SDS011;10426;49.420;8.390;2023-08-21T07:21:39;7.38;;;5.60;;
20535;SDS011;10426;49.420;8.390;2023-08-21T07:24:07;8.98;;;5.82;;
20535;SDS011;10426;49.420;8.390;2023-08-21T07:26:34;6.40;;;5.70;;
20535;SDS011;10426;49.420;8.390;2023-08-21T07:29:00;6.30;;;5.80;;
20535;SDS011;10426;49.420;8.390;2023-08-21T07:31:29;7.05;;;6.03;;
20535;SDS011;10426;49.420;8.390;2023-08-21T07:33:56;8.70;;;6.32;;
20535;SDS011;10426;49.420;8.390;2023-08-21T07:36:22;6.40;;;5.90;;
20535;SDS011;10426;49.420;8.390;2023-08-21T07:38:49;8.63;;;5.60;;
20535;SDS011;10426;49.420;8.390;2023-08-21T07:41:17;7.10;;;6.00;;
20535;SDS011;10426;49.420;8.390;2023-08-21T07:43:44;6.82;;;6.13;;
20535;SDS011;10426;49.420;8.390;2023-08-21T07:46:11;6.15;;;5.55;;
20535;SDS011;10426;49.420;8.390;2023-08-21T07:48:41;8.05;;;5.90;;
20535;SDS011;10426;49.420;8.390;2023-08-21T07:51:07;6.25;;;5.75;;
20535;SDS011;10426;49.420;8.390;2023-08-21T07:53:34;10.75;;;6.38;;
20535;SDS011;10426;49.420;8.390;2023-08-21T07:56:01;6.40;;;5.90;;
20535;SDS011;10426;49.420;8.390;2023-08-21T07:58:30;7.15;;;6.20;;
20535;SDS011;10426;49.420;8.390;2023-08-21T08:00:57;7.72;;;6.40;;
20535;SDS011;10426;49.420;8.390;2023-08-21T08:03:23;6.90;;;6.30;;
20535;SDS011;10426;49.420;8.390;2023-08-21T08:05:50;5.95;;;5.40;;
20535;SDS011;10426;49.420;8.390;2023-08-21T08:08:17;6.63;;;5.50;;
20535;SDS011;10426;49.420;8.390;2023-08-21T08:10:44;6.60;;;6.00;;
20535;SDS011;10426;49.420;8.390;2023-08-21T08:13:10;10.07;;;6.15;;
20535;SDS011;10426;49.420;8.390;2023-08-21T08:15:38;6.60;;;5.67;;
20535;SDS011;10426;49.420;8.390;2023-08-21T08:18:10;7.80;;;5.40;;
20535;SDS011;10426;49.420;8.390;2023-08-21T08:20:37;7.35;;;6.32;;
20535;SDS011;10426;49.420;8.390;2023-08-21T08:23:03;7.47;;;6.40;;
20535;SDS011;10426;49.420;8.390;2023-08-21T08:25:30;6.77;;;6.27;;
20535;SDS011;10426;49.420;8.390;2023-08-21T08:27:57;8.75;;;6.00;;
20535;SDS011;10426;49.420;8.390;2023-08-21T08:30:23;8.95;;;6.32;;
20535;SDS011;10426;49.420;8.390;2023-08-21T08:32:51;6.25;;;5.65;;
20535;SDS011;10426;49.420;8.390;2023-08-21T08:35:18;8.15;;;6.20;;
20535;SDS011;10426;49.420;8.390;2023-08-21T08:37:45;6.65;;;5.93;;
20535;SDS011;10426;49.420;8.390;2023-08-21T08:40:11;10.07;;;5.70;;
20535;SDS011;10426;49.420;8.390;2023-08-21T08:42:38;6.40;;;5.22;;
20535;SDS011;10426;49.420;8.390;2023-08-21T08:45:05;6.23;;;5.63;;
20535;SDS011;10426;49.420;8.390;2023-08-21T08:47:32;5.20;;;4.80;;
20535;SDS011;10426;49.420;8.390;2023-08-21T08:50:02;5.50;;;4.78;;
20535;SDS011;10426;49.420;8.390;2023-08-21T08:52:30;6.78;;;4.55;;
20535;SDS011;10426;49.420;8.390;2023-08-21T08:54:57;5.22;;;4.25;;
20535;SDS011;10426;49.420;8.390;2023-08-21T08:57:24;7.72;;;4.80;;
20535;SDS011;10426;49.420;8.390;2023-08-21T08:59:50;5.65;;;4.70;;
20535;SDS011;10426;49.420;8.390;2023-08-21T09:02:17;4.90;;;4.40;;
20535;SDS011;10426;49.420;8.390;2023-08-21T09:04:44;5.53;;;4.50;;
20535;SDS011;10426;49.420;8.390;2023-08-21T09:07:12;5.72;;;4.38;;
20535;SDS011;10426;49.420;8.390;2023-08-21T09:09:39;5.47;;;4.05;;
20535;SDS011;10426;49.420;8.390;2023-08-21T09:12:12;4.45;;;3.95;;
20535;SDS011;10426;49.420;8.390;2023-08-21T09:14:39;4.38;;;3.97;;
20535;SDS011;10426;49.420;8.390;2023-08-21T09:17:06;8.05;;;4.70;;
20535;SDS011;10426;49.420;8.390;2023-08-21T09:19:33;5.32;;;4.40;;
20535;SDS011;10426;49.420;8.390;2023-08-21T09:22:03;4.70;;;4.30;;
20535;SDS011;10426;49.420;8.390;2023-08-21T09:24:35;4.63;;;4.13;;
20535;SDS011;10426;49.420;8.390;2023-08-21T09:27:01;4.53;;;4.10;;
20535;SDS011;10426;49.420;8.390;2023-08-21T09:29:37;4.10;;;3.80;;
20535;SDS011;10426;49.420;8.390;2023-08-21T09:32:04;4.82;;;4.10;;
20535;SDS011;10426;49.420;8.390;2023-08-21T09:34:33;4.35;;;3.95;;
20535;SDS011;10426;49.420;8.390;2023-08-21T09:37:00;4.30;;;3.90;;
20535;SDS011;10426;49.420;8.390;2023-08-21T09:39:32;6.55;;;4.10;;
20535;SDS011;10426;49.420;8.390;2023-08-21T09:42:00;4.35;;;3.70;;
20535;SDS011;10426;49.420;8.390;2023-08-21T09:44:27;4.22;;;3.50;;
20535;SDS011;10426;49.420;8.390;2023-08-21T09:46:54;3.93;;;3.60;;
20535;SDS011;10426;49.420;8.390;2023-08-21T09:49:20;5.45;;;4.05;;
20535;SDS011;10426;49.420;8.390;2023-08-21T09:51:48;4.13;;;3.80;;
20535;SDS011;10426;49.420;8.390;2023-08-21T09:54:14;4.20;;;3.90;;
20535;SDS011;10426;49.420;8.390;2023-08-21T09:56:42;3.90;;;3.60;;
20535;SDS011;10426;49.420;8.390;2023-08-21T09:59:09;4.30;;;3.70;;
20535;SDS011;10426;49.420;8.390;2023-08-21T10:01:37;5.15;;;3.85;;
20535;SDS011;10426;49.420;8.390;2023-08-21T10:04:04;4.60;;;4.20;;
20535;SDS011;10426;49.420;8.390;2023-08-21T10:06:31;4.40;;;3.85;;
20535;SDS011;10426;49.420;8.390;2023-08-21T10:09:00;5.70;;;3.50;;
20535;SDS011;10426;49.420;8.390;2023-08-21T10:11:26;4.00;;;3.53;;
20535;SDS011;10426;49.420;8.390;2023-08-21T10:13:54;5.60;;;3.88;;
20535;SDS011;10426;49.420;8.390;2023-08-21T10:16:23;3.50;;;3.15;;
20535;SDS011;10426;49.420;8.390;2023-08-21T10:18:50;3.50;;;3.20;;
20535;SDS011;10426;49.420;8.390;2023-08-21T10:21:18;3.58;;;3.30;;
20535;SDS011;10426;49.420;8.390;2023-08-21T10:23:45;3.03;;;2.83;;
20535;SDS011;10426;49.420;8.390;2023-08-21T10:26:12;4.70;;;3.50;;
20535;SDS011;10426;49.420;8.390;2023-08-21T10:28:43;3.80;;;3.30;;
20535;SDS011;10426;49.420;8.390;2023-08-21T10:31:27;3.50;;;3.20;;
20535;SDS011;10426;49.420;8.390;2023-08-21T10:33:54;5.90;;;3.25;;
20535;SDS011;10426;49.420;8.390;2023-08-21T10:39:02;3.13;;;2.90;;
20535;SDS011;10426;49.420;8.390;2023-08-21T10:41:29;5.15;;;2.90;;
20535;SDS011;10426;49.420;8.390;2023-08-21T10:43:56;3.40;;;3.20;;
20535;SDS011;10426;49.420;8.390;2023-08-21T10:46:23;4.35;;;3.10;;
20535;SDS011;10426;49.420;8.390;2023-08-21T10:48:51;3.67;;;3.15;;
20535;SDS011;10426;49.420;8.390;2023-08-21T10:51:18;4.30;;;3.17;;
20535;SDS011;10426;49.420;8.390;2023-08-21T10:53:45;4.10;;;3.30;;
20535;SDS011;10426;49.420;8.390;2023-08-21T10:56:12;3.90;;;2.97;;
20535;SDS011;10426;49.420;8.390;2023-08-21T10:58:40;3.20;;;3.00;;
20535;SDS011;10426;49.420;8.390;2023-08-21T11:01:07;3.90;;;3.33;;
20535;SDS011;10426;49.420;8.390;2023-08-21T11:03:34;3.70;;;3.10;;
20535;SDS011;10426;49.420;8.390;2023-08-21T11:06:06;3.45;;;3.15;;
20535;SDS011;10426;49.420;8.390;2023-08-21T11:08:33;3.20;;;2.90;;
20535;SDS011;10426;49.420;8.390;2023-08-21T11:10:59;3.97;;;3.10;;
20535;SDS011;10426;49.420;8.390;2023-08-21T11:13:26;3.80;;;3.30;;
20535;SDS011;10426;49.420;8.390;2023-08-21T11:15:57;4.32;;;3.10;;
20535;SDS011;10426;49.420;8.390;2023-08-21T11:18:29;3.87;;;3.43;;
20535;SDS011;10426;49.420;8.390;2023-08-21T11:21:02;5.70;;;3.20;;
20535;SDS011;10426;49.420;8.390;2023-08-21T11:23:32;3.47;;;3.10;;
20535;SDS011;10426;49.420;8.390;2023-08-21T11:26:00;3.40;;;3.10;;
20535;SDS011;10426;49.420;8.390;2023-08-21T11:28:27;3.95;;;3.63;;
20535;SDS011;10426;49.420;8.390;2023-08-21T11:30:55;5.07;;;3.03;;
20535;SDS011;10426;49.420;8.390;2023-08-21T11:33:21;5.03;;;3.13;;
20535;SDS011;10426;49.420;8.390;2023-08-21T11:35:48;5.03;;;3.22;;
20535;SDS011;10426;49.420;8.390;2023-08-21T11:38:16;4.90;;;3.00;;
20535;SDS011;10426;49.420;8.390;2023-08-21T11:40:51;3.47;;;3.17;;
20535;SDS011;10426;49.420;8.390;2023-08-21T11:43:18;6.80;;;3.42;;
20535;SDS011;10426;49.420;8.390;2023-08-21T11:45:45;4.18;;;3.17;;
20535;SDS011;10426;49.420;8.390;2023-08-21T11:48:12;3.90;;;3.00;;
20535;SDS011;10426;49.420;8.390;2023-08-21T11:50:38;5.93;;;3.20;;
20535;SDS011;10426;49.420;8.390;2023-08-21T11:53:05;4.55;;;3.20;;
20535;SDS011;10426;49.420;8.390;2023-08-21T11:55:32;3.30;;;3.10;;
20535;SDS011;10426;49.420;8.390;2023-08-21T11:58:00;5.45;;;3.40;;
20535;SDS011;10426;49.420;8.390;2023-08-21T12:00:28;3.20;;;2.93;;
20535;SDS011;10426;49.420;8.390;2023-08-21T12:02:55;3.10;;;2.80;;
20535;SDS011;10426;49.420;8.390;2023-08-21T12:05:22;3.75;;;3.10;;
20535;SDS011;10426;49.420;8.390;2023-08-21T12:07:49;5.03;;;2.80;;
20535;SDS011;10426;49.420;8.390;2023-08-21T12:10:21;3.00;;;2.80;;
20535;SDS011;10426;49.420;8.390;2023-08-21T12:12:48;3.10;;;2.80;;
20535;SDS011;10426;49.420;8.390;2023-08-21T12:15:16;10.55;;;2.63;;
20535;SDS011;10426;49.420;8.390;2023-08-21T12:17:42;3.92;;;2.58;;
20535;SDS011;10426;49.420;8.390;2023-08-21T12:20:09;2.95;;;2.65;;
20535;SDS011;10426;49.420;8.390;2023-08-21T12:22:37;3.45;;;2.65;;
20535;SDS011;10426;49.420;8.390;2023-08-21T12:25:04;2.95;;;2.60;;
20535;SDS011;10426;49.420;8.390;2023-08-21T12:27:30;3.47;;;2.50;;
20535;SDS011;10426;49.420;8.390;2023-08-21T12:29:57;4.63;;;2.70;;
20535;SDS011;10426;49.420;8.390;2023-08-21T12:32:25;2.60;;;2.45;;
20535;SDS011;10426;49.420;8.390;2023-08-21T12:34:51;2.60;;;2.50;;
20535;SDS011;10426;49.420;8.390;2023-08-21T12:37:18;3.78;;;2.50;;
20535;SDS011;10426;49.420;8.390;2023-08-21T12:39:45;3.28;;;2.50;;
20535;SDS011;10426;49.420;8.390;2023-08-21T12:42:11;2.65;;;2.42;;
20535;SDS011;10426;49.420;8.390;2023-08-21T12:44:38;2.60;;;2.40;;
20535;SDS011;10426;49.420;8.390;2023-08-21T12:47:05;4.88;;;2.35;;
20535;SDS011;10426;49.420;8.390;2023-08-21T12:49:33;2.55;;;2.45;;
20535;SDS011;10426;49.420;8.390;2023-08-21T12:52:00;2.67;;;2.47;;
20535;SDS011;10426;49.420;8.390;2023-08-21T12:54:27;2.60;;;2.40;;
20535;SDS011;10426;49.420;8.390;2023-08-21T12:56:54;3.23;;;2.40;;
20535;SDS011;10426;49.420;8.390;2023-08-21T12:59:22;2.60;;;2.40;;
20535;SDS011;10426;49.420;8.390;2023-08-21T13:01:48;3.08;;;2.40;;
20535;SDS011;10426;49.420;8.390;2023-08-21T13:04:15;2.75;;;2.30;;
20535;SDS011;10426;49.420;8.390;2023-08-21T13:06:43;5.10;;;2.47;;
20535;SDS011;10426;49.420;8.390;2023-08-21T13:09:09;2.67;;;2.47;;
20535;SDS011;10426;49.420;8.390;2023-08-21T13:11:36;3.73;;;2.33;;
20535;SDS011;10426;49.420;8.390;2023-08-21T13:14:03;3.80;;;2.40;;
20535;SDS011;10426;49.420;8.390;2023-08-21T13:16:29;3.33;;;2.45;;
20535;SDS011;10426;49.420;8.390;2023-08-21T13:18:56;5.97;;;2.40;;
20535;SDS011;10426;49.420;8.390;2023-08-21T13:21:23;6.00;;;2.70;;
20535;SDS011;10426;49.420;8.390;2023-08-21T13:23:51;6.47;;;2.58;;
20535;SDS011;10426;49.420;8.390;2023-08-21T13:26:17;3.00;;;2.70;;
20535;SDS011;10426;49.420;8.390;2023-08-21T13:28:44;3.67;;;2.50;;
20535;SDS011;10426;49.420;8.390;2023-08-21T13:31:11;4.40;;;2.80;;
20535;SDS011;10426;49.420;8.390;2023-08-21T13:33:43;2.97;;;2.70;;
20535;SDS011;10426;49.420;8.390;2023-08-21T13:36:10;2.58;;;2.38;;
20535;SDS011;10426;49.420;8.390;2023-08-21T13:38:37;2.72;;;2.53;;
20535;SDS011;10426;49.420;8.390;2023-08-21T13:41:05;2.92;;;2.50;;
20535;SDS011;10426;49.420;8.390;2023-08-21T13:43:31;2.80;;;2.53;;
20535;SDS011;10426;49.420;8.390;2023-08-21T13:45:59;3.78;;;2.53;;
20535;SDS011;10426;49.420;8.390;2023-08-21T13:48:26;2.70;;;2.55;;
20535;SDS011;10426;49.420;8.390;2023-08-21T13:50:53;2.90;;;2.70;;
20535;SDS011;10426;49.420;8.390;2023-08-21T13:53:19;2.70;;;2.50;;
20535;SDS011;10426;49.420;8.390;2023-08-21T13:55:46;3.03;;;2.70;;
20535;SDS011;10426;49.420;8.390;2023-08-21T13:58:14;2.63;;;2.42;;
20535;SDS011;10426;49.420;8.390;2023-08-21T14:00:41;2.50;;;2.30;;
20535;SDS011;10426;49.420;8.390;2023-08-21T14:03:07;3.35;;;2.50;;
20535;SDS011;10426;49.420;8.390;2023-08-21T14:05:34;2.97;;;2.30;;
20535;SDS011;10426;49.420;8.390;2023-08-21T14:08:01;2.90;;;2.47;;
20535;SDS011;10426;49.420;8.390;2023-08-21T14:10:27;2.40;;;2.20;;
20535;SDS011;10426;49.420;8.390;2023-08-21T14:12:55;2.75;;;2.50;;
20535;SDS011;10426;49.420;8.390;2023-08-21T14:15:23;3.30;;;2.35;;
20535;SDS011;10426;49.420;8.390;2023-08-21T14:17:50;5.35;;;2.35;;
20535;SDS011;10426;49.420;8.390;2023-08-21T14:20:17;2.25;;;2.15;;
20535;SDS011;10426;49.420;8.390;2023-08-21T14:22:43;2.92;;;2.40;;
20535;SDS011;10426;49.420;8.390;2023-08-21T14:25:12;2.55;;;2.38;;
20535;SDS011;10426;49.420;8.390;2023-08-21T14:27:40;2.60;;;2.40;;
20535;SDS011;10426;49.420;8.390;2023-08-21T14:30:07;3.40;;;2.40;;
20535;SDS011;10426;49.420;8.390;2023-08-21T14:32:35;2.70;;;2.50;;
20535;SDS011;10426;49.420;8.390;2023-08-21T14:35:04;3.40;;;2.30;;
20535;SDS011;10426;49.420;8.390;2023-08-21T14:37:31;2.90;;;2.67;;
20535;SDS011;10426;49.420;8.390;2023-08-21T14:39:57;2.92;;;2.30;;
20535;SDS011;10426;49.420;8.390;2023-08-21T14:42:24;3.20;;;2.22;;
20535;SDS011;10426;49.420;8.390;2023-08-21T14:44:50;2.88;;;2.30;;
20535;SDS011;10426;49.420;8.390;2023-08-21T14:47:17;2.30;;;2.10;;
20535;SDS011;10426;49.420;8.390;2023-08-21T14:49:45;2.40;;;2.30;;
20535;SDS011;10426;49.420;8.390;2023-08-21T14:52:12;3.55;;;2.33;;